Ilias — SW3165 — position and weather

sailwx.info

Track history (hours):
 
Tides and Currents Weather Stations Pressure Air Temp Water Temp Dewpoint Dewpoint Depression Visibility Wind Speed Wind Dir Waves Ship Positions

Ilias

Last reported at 2018-Jun-22 19:45 UTC. Time now 2018-Jun-22 20:32 UTC.
Position N 40°38' E 024°14'.

Length 22 m; draft 1.9 m.

Type: Fishing. MMSI: 239022000.

Date/timePositionNaut miles runAvg speedWind from/ knotsBaromVisibWave heightAir tempDewpointWater temp
2018-Jun-22 19:45N 40°38' E 024°14'0 0.0
2018-Jun-22 19:30N 40°38' E 024°14'1 2.4
2018-Jun-22 19:00N 40°38' E 024°12'1 2.8
2018-Jun-22 18:29N 40°37' E 024°11'1 1.2
2018-Jun-22 18:00N 40°37' E 024°11'1 2.7
2018-Jun-22 17:30N 40°37' E 024°10'4 8.6
2018-Jun-22 17:00N 40°33' E 024°07'5 9.6
2018-Jun-22 16:30N 40°30' E 024°02'5 9.4
2018-Jun-22 15:58N 40°26' E 023°57'4 7.9
2018-Jun-22 15:30N 40°24' E 023°54'0 0.0
2018-Jun-22 14:55N 40°24' E 023°54'0 0.0
2018-Jun-22 13:33N 40°24' E 023°54'0 0.0
2018-Jun-22 13:30N 40°24' E 023°54'0 0.0
2018-Jun-22 13:00N 40°24' E 023°54'0 0.0
2018-Jun-22 12:30N 40°24' E 023°54'0 0.0
2018-Jun-22 12:00N 40°24' E 023°54'0 0.0
2018-Jun-22 11:30N 40°24' E 023°54'0 0.0
2018-Jun-22 10:22N 40°24' E 023°54'7 1.5
2018-Jun-22 05:58N 40°27' E 024°01'4 9.6
2018-Jun-22 05:30N 40°25' E 024°06'5 9.6
2018-Jun-22 05:00N 40°22' E 024°11'5 9.6
2018-Jun-22 04:30N 40°19' E 024°15'5 9.7
2018-Jun-22 04:00N 40°15' E 024°20'5 9.2
2018-Jun-22 03:30N 40°19' E 024°16'5 9.8
2018-Jun-22 03:00N 40°22' E 024°11'17 4.2
2018-Jun-21 23:01N 40°30' E 023°52'0 4.4
2018-Jun-21 23:00N 40°30' E 023°52'3 3.7
2018-Jun-21 22:11N 40°29' E 023°55'2 4.4
2018-Jun-21 21:45N 40°29' E 023°58'4 9.3
2018-Jun-21 21:18N 40°27' E 024°03'3 9.8
2018-Jun-21 21:00N 40°25' E 024°05'1 1.8
2018-Jun-21 20:30N 40°24' E 024°06'0 0.1
2018-Jun-21 19:53N 40°24' E 024°06'1 1.6
2018-Jun-21 19:26N 40°24' E 024°07'4 8.2
2018-Jun-21 19:00N 40°22' E 024°11'510.0
2018-Jun-21 18:29N 40°19' E 024°17'6 0.4
2018-Jun-21 01:45N 40°23' E 024°10'210.1
2018-Jun-21 01:30N 40°21' E 024°13'4 8.4
2018-Jun-21 01:00N 40°19' E 024°17'0 0.8
2018-Jun-21 00:30N 40°18' E 024°17'0 0.0
2018-Jun-20 23:59N 40°18' E 024°17'0 0.0
2018-Jun-20 23:30N 40°18' E 024°17'0 0.1
2018-Jun-20 23:00N 40°18' E 024°17'0 0.1
2018-Jun-20 22:30N 40°18' E 024°17'0 0.5
2018-Jun-20 21:58N 40°18' E 024°17'0 0.8
2018-Jun-20 21:29N 40°19' E 024°17'0 0.5
2018-Jun-20 21:00N 40°19' E 024°17'0 0.5
2018-Jun-20 20:30N 40°19' E 024°17'0 0.5
2018-Jun-20 20:00N 40°19' E 024°18'0 0.0
2018-Jun-20 19:29N 40°19' E 024°18'0 0.0
2018-Jun-20 18:59N 40°19' E 024°18'0 0.1
2018-Jun-20 18:30N 40°19' E 024°18'0 0.5
2018-Jun-20 17:58N 40°19' E 024°17'0 0.4
2018-Jun-20 17:30N 40°19' E 024°17'3 6.4
2018-Jun-20 17:00N 40°16' E 024°19'0 0.1
2018-Jun-20 16:30N 40°16' E 024°19'0 0.0
2018-Jun-20 15:59N 40°16' E 024°19'0 0.1
2018-Jun-20 15:30N 40°16' E 024°19'2 4.7
2018-Jun-20 14:59N 40°14' E 024°21'22 0.4
2018-Jun-18 13:42N 39°58' E 024°02'2 9.3
2018-Jun-18 13:30N 39°59' E 024°04'5 9.7
2018-Jun-18 13:00N 40°01' E 024°09'5 9.2
2018-Jun-18 12:30N 40°04' E 024°14'7 9.5
2018-Jun-18 11:45N 40°07' E 024°22'3 8.6
2018-Jun-18 11:22N 40°10' E 024°24'410.1
2018-Jun-18 11:00N 40°13' E 024°21'5 9.7
2018-Jun-18 10:30N 40°17' E 024°17'5 9.5
2018-Jun-18 09:57N 40°21' E 024°13'5 9.5
2018-Jun-18 09:27N 40°24' E 024°08'4 9.1
2018-Jun-18 09:00N 40°26' E 024°03'7 0.9
2018-Jun-18 01:21N 40°30' E 024°11'0 0.5
2018-Jun-18 00:48N 40°30' E 024°11'0 0.0
2018-Jun-17 23:10N 40°30' E 024°11'0 0.0
2018-Jun-17 23:00N 40°30' E 024°11'0 0.0
2018-Jun-17 22:13N 40°30' E 024°11'0 0.1
2018-Jun-17 22:00N 40°30' E 024°11'0 0.0
2018-Jun-17 21:30N 40°30' E 024°11'0 0.0
2018-Jun-17 21:00N 40°30' E 024°11'0 0.2
2018-Jun-17 19:10N 40°30' E 024°11'1 4.9
2018-Jun-17 19:00N 40°29' E 024°10'2 4.1
2018-Jun-17 18:30N 40°31' E 024°09'3 5.9
2018-Jun-17 18:00N 40°30' E 024°06'5 9.4
2018-Jun-17 17:30N 40°28' E 024°00'6 9.5
2018-Jun-17 16:55N 40°25' E 023°54'18 0.4
2018-Jun-15 13:17N 40°18' E 024°17'310.1
2018-Jun-15 13:00N 40°16' E 024°19'5 9.6
2018-Jun-15 12:30N 40°12' E 024°23'7 5.0
2018-Jun-15 11:09N 40°09' E 024°15'2 9.4
2018-Jun-15 10:56N 40°10' E 024°13'4 9.6
2018-Jun-15 10:30N 40°13' E 024°09'18 0.4
2018-Jun-13 18:22N 40°20' E 023°47'0 0.3
2018-Jun-13 17:38N 40°20' E 023°46'1 8.2
2018-Jun-13 17:30N 40°20' E 023°48'4 8.5
2018-Jun-13 17:00N 40°21' E 023°53'2 1.0
2018-Jun-13 15:20N 40°22' E 023°55'3 8.5
2018-Jun-13 15:00N 40°20' E 023°58'8 9.9
2018-Jun-13 14:10N 40°14' E 024°06'2 9.8
2018-Jun-13 14:00N 40°13' E 024°07'510.0
2018-Jun-13 13:30N 40°10' E 024°12'9 8.9
2018-Jun-13 12:30N 40°08' E 024°24'5 9.7
2018-Jun-13 12:00N 40°13' E 024°22'510.2
2018-Jun-13 11:30N 40°17' E 024°17'5 9.3
2018-Jun-13 11:00N 40°20' E 024°13'5 9.3
2018-Jun-13 10:30N 40°23' E 024°08'510.0
2018-Jun-13 10:00N 40°26' E 024°03'4 7.9
2018-Jun-13 09:30N 40°26' E 023°58'4 7.8
2018-Jun-13 08:59N 40°24' E 023°54'0 0.0
2018-Jun-13 08:00N 40°24' E 023°54'0 0.0
2018-Jun-13 07:30N 40°24' E 023°54'0 0.0
2018-Jun-13 07:00N 40°24' E 023°54'0 0.0
2018-Jun-13 06:30N 40°24' E 023°54'0 0.0
2018-Jun-13 06:00N 40°24' E 023°54'0 0.0
2018-Jun-13 05:16N 40°24' E 023°54'0 0.0
2018-Jun-13 04:46N 40°24' E 023°54'0 0.0
2018-Jun-13 04:26N 40°24' E 023°54'0 0.0
2018-Jun-13 04:00N 40°24' E 023°54'18 4.8
2018-Jun-13 00:08N 40°38' E 024°09'0 0.5
2018-Jun-13 00:00N 40°38' E 024°09'0 0.4
2018-Jun-12 23:30N 40°38' E 024°09'0 0.3
2018-Jun-12 23:00N 40°38' E 024°09'0 0.8
2018-Jun-12 22:30N 40°38' E 024°08'0 0.0
2018-Jun-12 22:00N 40°38' E 024°08'0 0.0
2018-Jun-12 21:30N 40°38' E 024°08'0 0.0
2018-Jun-12 21:00N 40°38' E 024°08'0 0.0
2018-Jun-12 20:28N 40°38' E 024°08'0 0.1
2018-Jun-12 19:59N 40°38' E 024°08'  
Track history (hours):
 
Tides and Currents Weather Stations Pressure Air Temp Water Temp Dewpoint Dewpoint Depression Visibility Wind Speed Wind Dir Waves Ship Positions

Ilias

Last reported at 2018-Jun-22 19:45 UTC. Time now 2018-Jun-22 20:32 UTC.
Position N 40°38' E 024°14'.

Length 22 m; draft 1.9 m.

Type: Fishing. MMSI: 239022000.

Date/timePositionNaut miles runAvg speedWind from/ knotsBaromVisibWave heightAir tempDewpointWater temp
2018-Jun-22 19:45N 40°38' E 024°14'0 0.0
2018-Jun-22 19:30N 40°38' E 024°14'1 2.4
2018-Jun-22 19:00N 40°38' E 024°12'1 2.8
2018-Jun-22 18:29N 40°37' E 024°11'1 1.2
2018-Jun-22 18:00N 40°37' E 024°11'1 2.7
2018-Jun-22 17:30N 40°37' E 024°10'4 8.6
2018-Jun-22 17:00N 40°33' E 024°07'5 9.6
2018-Jun-22 16:30N 40°30' E 024°02'5 9.4
2018-Jun-22 15:58N 40°26' E 023°57'4 7.9
2018-Jun-22 15:30N 40°24' E 023°54'0 0.0
2018-Jun-22 14:55N 40°24' E 023°54'0 0.0
2018-Jun-22 13:33N 40°24' E 023°54'0 0.0
2018-Jun-22 13:30N 40°24' E 023°54'0 0.0
2018-Jun-22 13:00N 40°24' E 023°54'0 0.0
2018-Jun-22 12:30N 40°24' E 023°54'0 0.0
2018-Jun-22 12:00N 40°24' E 023°54'0 0.0
2018-Jun-22 11:30N 40°24' E 023°54'0 0.0
2018-Jun-22 10:22N 40°24' E 023°54'7 1.5
2018-Jun-22 05:58N 40°27' E 024°01'4 9.6
2018-Jun-22 05:30N 40°25' E 024°06'5 9.6
2018-Jun-22 05:00N 40°22' E 024°11'5 9.6
2018-Jun-22 04:30N 40°19' E 024°15'5 9.7
2018-Jun-22 04:00N 40°15' E 024°20'5 9.2
2018-Jun-22 03:30N 40°19' E 024°16'5 9.8
2018-Jun-22 03:00N 40°22' E 024°11'17 4.2
2018-Jun-21 23:01N 40°30' E 023°52'0 4.4
2018-Jun-21 23:00N 40°30' E 023°52'3 3.7
2018-Jun-21 22:11N 40°29' E 023°55'2 4.4
2018-Jun-21 21:45N 40°29' E 023°58'4 9.3
2018-Jun-21 21:18N 40°27' E 024°03'3 9.8
2018-Jun-21 21:00N 40°25' E 024°05'1 1.8
2018-Jun-21 20:30N 40°24' E 024°06'0 0.1
2018-Jun-21 19:53N 40°24' E 024°06'1 1.6
2018-Jun-21 19:26N 40°24' E 024°07'4 8.2
2018-Jun-21 19:00N 40°22' E 024°11'510.0
2018-Jun-21 18:29N 40°19' E 024°17'6 0.4
2018-Jun-21 01:45N 40°23' E 024°10'210.1
2018-Jun-21 01:30N 40°21' E 024°13'4 8.4
2018-Jun-21 01:00N 40°19' E 024°17'0 0.8
2018-Jun-21 00:30N 40°18' E 024°17'0 0.0
2018-Jun-20 23:59N 40°18' E 024°17'0 0.0
2018-Jun-20 23:30N 40°18' E 024°17'0 0.1
2018-Jun-20 23:00N 40°18' E 024°17'0 0.1
2018-Jun-20 22:30N 40°18' E 024°17'0 0.5
2018-Jun-20 21:58N 40°18' E 024°17'0 0.8
2018-Jun-20 21:29N 40°19' E 024°17'0 0.5
2018-Jun-20 21:00N 40°19' E 024°17'0 0.5
2018-Jun-20 20:30N 40°19' E 024°17'0 0.5
2018-Jun-20 20:00N 40°19' E 024°18'0 0.0
2018-Jun-20 19:29N 40°19' E 024°18'0 0.0
2018-Jun-20 18:59N 40°19' E 024°18'0 0.1
2018-Jun-20 18:30N 40°19' E 024°18'0 0.5
2018-Jun-20 17:58N 40°19' E 024°17'0 0.4
2018-Jun-20 17:30N 40°19' E 024°17'3 6.4
2018-Jun-20 17:00N 40°16' E 024°19'0 0.1
2018-Jun-20 16:30N 40°16' E 024°19'0 0.0
2018-Jun-20 15:59N 40°16' E 024°19'0 0.1
2018-Jun-20 15:30N 40°16' E 024°19'2 4.7
2018-Jun-20 14:59N 40°14' E 024°21'22 0.4
2018-Jun-18 13:42N 39°58' E 024°02'2 9.3
2018-Jun-18 13:30N 39°59' E 024°04'5 9.7
2018-Jun-18 13:00N 40°01' E 024°09'5 9.2
2018-Jun-18 12:30N 40°04' E 024°14'7 9.5
2018-Jun-18 11:45N 40°07' E 024°22'3 8.6
2018-Jun-18 11:22N 40°10' E 024°24'410.1
2018-Jun-18 11:00N 40°13' E 024°21'5 9.7
2018-Jun-18 10:30N 40°17' E 024°17'5 9.5
2018-Jun-18 09:57N 40°21' E 024°13'5 9.5
2018-Jun-18 09:27N 40°24' E 024°08'4 9.1
2018-Jun-18 09:00N 40°26' E 024°03'7 0.9
2018-Jun-18 01:21N 40°30' E 024°11'0 0.5
2018-Jun-18 00:48N 40°30' E 024°11'0 0.0
2018-Jun-17 23:10N 40°30' E 024°11'0 0.0
2018-Jun-17 23:00N 40°30' E 024°11'0 0.0
2018-Jun-17 22:13N 40°30' E 024°11'0 0.1
2018-Jun-17 22:00N 40°30' E 024°11'0 0.0
2018-Jun-17 21:30N 40°30' E 024°11'0 0.0
2018-Jun-17 21:00N 40°30' E 024°11'0 0.2
2018-Jun-17 19:10N 40°30' E 024°11'1 4.9
2018-Jun-17 19:00N 40°29' E 024°10'2 4.1
2018-Jun-17 18:30N 40°31' E 024°09'3 5.9
2018-Jun-17 18:00N 40°30' E 024°06'5 9.4
2018-Jun-17 17:30N 40°28' E 024°00'6 9.5
2018-Jun-17 16:55N 40°25' E 023°54'18 0.4
2018-Jun-15 13:17N 40°18' E 024°17'310.1
2018-Jun-15 13:00N 40°16' E 024°19'5 9.6
2018-Jun-15 12:30N 40°12' E 024°23'7 5.0
2018-Jun-15 11:09N 40°09' E 024°15'2 9.4
2018-Jun-15 10:56N 40°10' E 024°13'4 9.6
2018-Jun-15 10:30N 40°13' E 024°09'18 0.4
2018-Jun-13 18:22N 40°20' E 023°47'0 0.3
2018-Jun-13 17:38N 40°20' E 023°46'1 8.2
2018-Jun-13 17:30N 40°20' E 023°48'4 8.5
2018-Jun-13 17:00N 40°21' E 023°53'2 1.0
2018-Jun-13 15:20N 40°22' E 023°55'3 8.5
2018-Jun-13 15:00N 40°20' E 023°58'8 9.9
2018-Jun-13 14:10N 40°14' E 024°06'2 9.8
2018-Jun-13 14:00N 40°13' E 024°07'510.0
2018-Jun-13 13:30N 40°10' E 024°12'9 8.9
2018-Jun-13 12:30N 40°08' E 024°24'5 9.7
2018-Jun-13 12:00N 40°13' E 024°22'510.2
2018-Jun-13 11:30N 40°17' E 024°17'5 9.3
2018-Jun-13 11:00N 40°20' E 024°13'5 9.3
2018-Jun-13 10:30N 40°23' E 024°08'510.0
2018-Jun-13 10:00N 40°26' E 024°03'4 7.9
2018-Jun-13 09:30N 40°26' E 023°58'4 7.8
2018-Jun-13 08:59N 40°24' E 023°54'0 0.0
2018-Jun-13 08:00N 40°24' E 023°54'0 0.0
2018-Jun-13 07:30N 40°24' E 023°54'0 0.0
2018-Jun-13 07:00N 40°24' E 023°54'0 0.0
2018-Jun-13 06:30N 40°24' E 023°54'0 0.0
2018-Jun-13 06:00N 40°24' E 023°54'0 0.0
2018-Jun-13 05:16N 40°24' E 023°54'0 0.0
2018-Jun-13 04:46N 40°24' E 023°54'0 0.0
2018-Jun-13 04:26N 40°24' E 023°54'0 0.0
2018-Jun-13 04:00N 40°24' E 023°54'18 4.8
2018-Jun-13 00:08N 40°38' E 024°09'0 0.5
2018-Jun-13 00:00N 40°38' E 024°09'0 0.4
2018-Jun-12 23:30N 40°38' E 024°09'0 0.3
2018-Jun-12 23:00N 40°38' E 024°09'0 0.8
2018-Jun-12 22:30N 40°38' E 024°08'0 0.0
2018-Jun-12 22:00N 40°38' E 024°08'0 0.0
2018-Jun-12 21:30N 40°38' E 024°08'0 0.0
2018-Jun-12 21:00N 40°38' E 024°08'0 0.0
2018-Jun-12 20:28N 40°38' E 024°08'0 0.1
2018-Jun-12 19:59N 40°38' E 024°08'  

Dump ship's entire track history